createdAt,value
2023-05-18T00:01:04.210Z,6.26
2023-05-18T00:03:22.051Z,6.22
2023-05-18T00:05:39.725Z,6.17
2023-05-18T00:07:56.687Z,6.17
2023-05-18T00:10:14.425Z,6.13
2023-05-18T00:12:31.464Z,6.09
2023-05-18T00:14:49.775Z,6.09
2023-05-18T00:17:07.038Z,6.06
2023-05-18T00:19:25.125Z,6.03
2023-05-18T00:21:42.973Z,5.99
2023-05-18T00:24:00.314Z,5.96
2023-05-18T00:26:17.709Z,5.91
2023-05-18T00:28:35.014Z,5.92
2023-05-18T00:30:52.365Z,5.84
2023-05-18T00:33:09.803Z,5.81
2023-05-18T00:35:27.265Z,5.78
2023-05-18T00:37:44.652Z,5.77
2023-05-18T00:40:01.997Z,5.72
2023-05-18T00:42:19.353Z,5.67
2023-05-18T00:44:36.272Z,5.70
2023-05-18T00:46:53.629Z,5.65
2023-05-18T00:49:10.996Z,5.61
2023-05-18T00:51:28.680Z,5.55
2023-05-18T00:53:45.674Z,5.50
2023-05-18T00:56:03.081Z,5.47
2023-05-18T00:58:20.358Z,5.45
2023-05-18T01:00:37.973Z,5.42
2023-05-18T01:02:55.789Z,5.34
2023-05-18T01:05:13.153Z,5.30
2023-05-18T01:07:30.101Z,5.33
2023-05-18T01:09:47.796Z,5.33
2023-05-18T01:12:06.205Z,5.29
2023-05-18T01:14:23.254Z,5.23
2023-05-18T01:16:40.172Z,5.23
2023-05-18T01:18:57.914Z,5.18
2023-05-18T01:21:15.256Z,5.14
2023-05-18T01:23:32.670Z,5.09
2023-05-18T01:25:49.946Z,5.05
2023-05-18T01:28:07.251Z,5.02
2023-05-18T01:30:24.650Z,5.05
2023-05-18T01:32:43.023Z,5.01
2023-05-18T01:35:00.315Z,4.96
2023-05-18T01:37:17.664Z,4.92
2023-05-18T01:39:34.628Z,4.90
2023-05-18T01:41:51.587Z,4.89
2023-05-18T01:44:08.877Z,4.85
2023-05-18T01:46:26.293Z,4.80
2023-05-18T01:48:43.635Z,4.77
2023-05-18T01:51:00.579Z,4.75
2023-05-18T01:53:17.831Z,4.75
2023-05-18T01:55:37.276Z,4.74
2023-05-18T01:57:54.899Z,4.66
2023-05-18T02:00:13.333Z,4.66
2023-05-18T02:02:30.689Z,4.65
2023-05-18T02:04:48.475Z,4.65
2023-05-18T02:07:05.466Z,4.62
2023-05-18T02:09:22.813Z,4.58
2023-05-18T02:11:40.129Z,4.55
2023-05-18T02:13:57.454Z,4.55
2023-05-18T02:16:14.757Z,4.54
2023-05-18T02:18:31.795Z,4.48
2023-05-18T02:20:48.930Z,4.45
2023-05-18T02:23:06.292Z,4.43
2023-05-18T02:25:23.199Z,4.42
2023-05-18T02:27:40.258Z,4.38
2023-05-18T02:29:57.316Z,4.37
2023-05-18T02:32:15.077Z,4.34
2023-05-18T02:34:33.393Z,4.32
2023-05-18T02:36:50.728Z,4.31
2023-05-18T02:39:08.048Z,4.28
2023-05-18T02:41:25.673Z,4.25
2023-05-18T02:43:42.926Z,4.19
2023-05-18T02:46:00.257Z,4.17
2023-05-18T02:48:17.591Z,4.17
2023-05-18T02:50:35.286Z,4.16
2023-05-18T02:52:52.671Z,4.16
2023-05-18T02:55:09.653Z,4.12
2023-05-18T02:57:26.608Z,4.08
2023-05-18T02:59:43.552Z,4.06
2023-05-18T03:02:01.832Z,4.03
2023-05-18T03:04:19.237Z,4.02
2023-05-18T03:06:36.146Z,4.01
2023-05-18T03:08:53.498Z,3.99
2023-05-18T03:11:10.453Z,3.96
2023-05-18T03:13:28.724Z,3.93
2023-05-18T03:15:46.954Z,3.92
2023-05-18T03:18:05.333Z,3.91
2023-05-18T03:20:22.635Z,3.87
2023-05-18T03:22:39.646Z,3.86
2023-05-18T03:24:57.056Z,3.84
2023-05-18T03:27:14.322Z,3.83
2023-05-18T03:29:31.731Z,3.81
2023-05-18T03:31:49.601Z,3.77
2023-05-18T03:34:06.871Z,3.75
2023-05-18T03:36:23.915Z,3.75
2023-05-18T03:38:41.283Z,3.74
2023-05-18T03:40:58.649Z,3.74
2023-05-18T03:43:15.944Z,3.71
2023-05-18T03:45:33.564Z,3.69
2023-05-18T03:47:50.678Z,3.69
2023-05-18T03:50:08.458Z,3.66
2023-05-18T03:52:26.208Z,3.67
2023-05-18T03:54:43.447Z,3.70
2023-05-18T03:57:00.663Z,3.69
2023-05-18T03:59:18.027Z,3.68
2023-05-18T04:01:34.968Z,3.68
2023-05-18T04:03:52.319Z,3.68
2023-05-18T04:06:09.310Z,3.67
2023-05-18T04:08:26.732Z,3.67
2023-05-18T04:10:44.103Z,3.65
2023-05-18T04:13:01.473Z,3.63
2023-05-18T04:15:18.442Z,3.65
2023-05-18T04:17:35.492Z,3.66
2023-05-18T04:19:52.420Z,3.69
2023-05-18T04:22:09.723Z,3.68
2023-05-18T04:24:27.053Z,3.69
2023-05-18T04:26:44.355Z,3.72
2023-05-18T04:29:01.721Z,3.76
2023-05-18T04:31:19.008Z,3.79
2023-05-18T04:33:36.028Z,3.80
2023-05-18T04:35:53.439Z,3.80
2023-05-18T04:38:10.841Z,3.83
2023-05-18T04:40:28.225Z,3.85
2023-05-18T04:42:46.170Z,3.87
2023-05-18T04:45:03.464Z,3.93
2023-05-18T04:47:20.408Z,3.93
2023-05-18T04:49:37.860Z,3.98
2023-05-18T04:51:55.218Z,4.00
2023-05-18T04:54:12.544Z,4.02
2023-05-18T04:56:29.807Z,4.04
2023-05-18T04:58:47.083Z,4.04
2023-05-18T05:01:04.107Z,4.04
2023-05-18T05:03:21.263Z,4.06
2023-05-18T05:05:38.342Z,4.16
2023-05-18T05:07:56.578Z,4.20
2023-05-18T05:10:13.838Z,4.24
2023-05-18T05:12:30.840Z,4.28
2023-05-18T05:14:48.087Z,4.35
2023-05-18T05:17:05.465Z,4.48
2023-05-18T05:19:22.873Z,4.59
2023-05-18T05:21:40.355Z,4.75
2023-05-18T05:23:58.084Z,4.90
2023-05-18T05:26:16.182Z,5.02
2023-05-18T05:28:33.502Z,5.09
2023-05-18T05:30:51.834Z,5.19
2023-05-18T05:33:09.219Z,5.33
2023-05-18T05:35:26.537Z,5.50
2023-05-18T05:37:43.849Z,5.57
2023-05-18T05:40:00.865Z,5.72
2023-05-18T05:42:18.166Z,5.83
2023-05-18T05:44:36.622Z,5.96
2023-05-18T05:46:53.818Z,6.09
2023-05-18T05:49:11.138Z,6.20
2023-05-18T05:51:28.549Z,6.29
2023-05-18T05:53:46.225Z,6.37
2023-05-18T05:56:03.192Z,6.47
2023-05-18T05:58:20.571Z,6.61
2023-05-18T06:00:37.567Z,6.80
2023-05-18T06:02:54.584Z,6.94
2023-05-18T06:05:12.137Z,7.03
2023-05-18T06:07:29.512Z,7.19
2023-05-18T06:09:47.114Z,7.34
2023-05-18T06:12:04.234Z,7.44
2023-05-18T06:14:21.256Z,7.56
2023-05-18T06:16:39.614Z,7.69
2023-05-18T06:18:57.703Z,7.73
2023-05-18T06:21:15.112Z,7.82
2023-05-18T06:23:32.460Z,7.93
2023-05-18T06:25:49.800Z,8.04
2023-05-18T06:28:07.183Z,8.25
2023-05-18T06:30:25.492Z,8.35
2023-05-18T06:32:42.841Z,8.50
2023-05-18T06:35:00.203Z,8.63
2023-05-18T06:37:18.491Z,8.80
2023-05-18T06:39:36.228Z,8.98
2023-05-18T06:41:53.991Z,9.10
2023-05-18T06:44:10.979Z,9.33
2023-05-18T06:46:28.483Z,9.43
2023-05-18T06:48:45.461Z,9.50
2023-05-18T06:51:02.830Z,9.67
2023-05-18T06:53:20.832Z,9.73
2023-05-18T06:55:38.053Z,9.99
2023-05-18T06:57:55.420Z,9.91
2023-05-18T07:00:12.714Z,10.05
2023-05-18T07:02:29.687Z,10.34
2023-05-18T07:04:47.056Z,10.44
2023-05-18T07:07:04.497Z,10.68
2023-05-18T07:09:21.748Z,10.70
2023-05-18T07:11:39.100Z,10.87
2023-05-18T07:13:56.189Z,11.06
2023-05-18T07:16:13.295Z,11.22
2023-05-18T07:18:30.308Z,11.38
2023-05-18T07:20:47.634Z,11.53
2023-05-18T07:23:05.373Z,11.67
2023-05-18T07:25:22.690Z,11.83
2023-05-18T07:27:39.597Z,11.99
2023-05-18T07:29:56.523Z,12.15
2023-05-18T07:32:13.899Z,12.29
2023-05-18T07:34:30.899Z,12.40
2023-05-18T07:36:48.911Z,12.45
2023-05-18T07:39:06.236Z,12.48
2023-05-18T07:41:23.588Z,12.65
2023-05-18T07:43:40.480Z,12.79
2023-05-18T07:45:57.778Z,12.90
2023-05-18T07:48:15.183Z,12.92
2023-05-18T07:50:33.107Z,13.09
2023-05-18T07:52:50.373Z,13.32
2023-05-18T07:55:07.695Z,13.37
2023-05-18T07:57:25.004Z,13.46
2023-05-18T07:59:42.368Z,13.47
2023-05-18T08:01:59.699Z,13.63
2023-05-18T08:04:17.074Z,13.73
2023-05-18T08:06:34.791Z,13.87
2023-05-18T08:08:52.095Z,14.02
2023-05-18T08:11:09.062Z,14.10
2023-05-18T08:13:26.077Z,14.10
2023-05-18T08:15:44.477Z,14.18
2023-05-18T08:18:01.769Z,14.39
2023-05-18T08:20:18.788Z,14.45
2023-05-18T08:22:36.034Z,14.43
2023-05-18T08:24:54.025Z,14.32
2023-05-18T08:27:10.999Z,14.39
2023-05-18T08:29:28.328Z,14.45
2023-05-18T08:31:46.921Z,14.54
2023-05-18T08:34:05.318Z,14.62
2023-05-18T08:36:23.003Z,14.72
2023-05-18T08:38:40.375Z,14.67
2023-05-18T08:40:57.708Z,14.82
2023-05-18T08:43:15.497Z,15.02
2023-05-18T08:45:33.362Z,15.14
2023-05-18T08:47:50.954Z,14.97
2023-05-18T08:50:08.279Z,14.85
2023-05-18T08:52:25.585Z,14.94
2023-05-18T08:54:42.931Z,14.91
2023-05-18T08:57:01.744Z,14.74
2023-05-18T08:59:19.163Z,14.82
2023-05-18T09:01:36.243Z,15.07
2023-05-18T09:03:53.601Z,15.20
2023-05-18T09:06:10.587Z,15.43
2023-05-18T09:08:30.390Z,15.41
2023-05-18T09:10:47.733Z,15.17
2023-05-18T09:13:04.695Z,14.84
2023-05-18T09:15:21.991Z,14.86
2023-05-18T09:17:39.038Z,15.08
2023-05-18T09:19:56.130Z,15.21
2023-05-18T09:22:13.069Z,15.47
2023-05-18T09:24:30.244Z,15.63
2023-05-18T09:26:47.864Z,15.87
2023-05-18T09:29:05.301Z,16.03
2023-05-18T09:31:22.328Z,16.13
2023-05-18T09:33:39.458Z,16.25
2023-05-18T09:35:56.469Z,16.34
2023-05-18T09:38:14.779Z,16.36
2023-05-18T09:40:31.725Z,16.45
2023-05-18T09:42:48.686Z,16.11
2023-05-18T09:45:05.627Z,16.14
2023-05-18T09:47:23.074Z,16.22
2023-05-18T09:49:40.419Z,16.24
2023-05-18T09:51:57.397Z,16.35
2023-05-18T09:54:16.758Z,16.56
2023-05-18T09:56:34.146Z,16.71
2023-05-18T09:58:51.445Z,16.81
2023-05-18T10:01:08.888Z,16.89
2023-05-18T10:03:26.324Z,17.00
2023-05-18T10:05:43.617Z,17.15
2023-05-18T10:08:00.927Z,17.25
2023-05-18T10:10:18.586Z,17.31
2023-05-18T10:12:35.902Z,17.36
2023-05-18T10:14:53.249Z,17.41
2023-05-18T10:17:15.636Z,17.40
2023-05-18T10:19:33.855Z,17.34
2023-05-18T10:21:51.104Z,17.43
2023-05-18T10:24:08.574Z,17.54
2023-05-18T10:26:25.951Z,17.66
2023-05-18T10:28:43.435Z,17.79
2023-05-18T10:31:00.838Z,17.93
2023-05-18T10:33:28.605Z,17.89
2023-05-18T10:35:47.139Z,17.96
2023-05-18T10:38:04.755Z,17.94
2023-05-18T10:40:21.827Z,17.95
2023-05-18T10:42:39.166Z,17.99
2023-05-18T10:44:56.844Z,17.99
2023-05-18T10:47:14.250Z,18.01
2023-05-18T10:49:31.264Z,17.96
2023-05-18T10:51:48.735Z,18.02
2023-05-18T10:54:06.491Z,18.20
2023-05-18T10:56:23.842Z,18.12
2023-05-18T10:58:40.763Z,18.22
2023-05-18T11:00:57.747Z,18.38
2023-05-18T11:03:14.819Z,18.33
2023-05-18T11:05:32.237Z,18.41
2023-05-18T11:07:49.601Z,18.53
2023-05-18T11:10:07.355Z,18.32
2023-05-18T11:12:24.714Z,18.50
2023-05-18T11:14:42.081Z,18.59
2023-05-18T11:16:59.424Z,18.62
2023-05-18T11:19:16.446Z,18.63
2023-05-18T11:21:33.824Z,18.62
2023-05-18T11:23:51.174Z,18.83
2023-05-18T11:26:08.541Z,18.91
2023-05-18T11:28:25.546Z,18.89
2023-05-18T11:30:42.600Z,18.85
2023-05-18T11:33:00.039Z,19.07
2023-05-18T11:35:17.462Z,19.15
2023-05-18T11:37:34.763Z,19.04
2023-05-18T11:39:59.345Z,19.15
2023-05-18T11:42:17.558Z,19.20
2023-05-18T11:44:34.906Z,19.28
2023-05-18T11:46:52.307Z,19.50
2023-05-18T11:49:09.805Z,19.39
2023-05-18T11:51:26.894Z,19.31
2023-05-18T11:53:44.243Z,19.19
2023-05-18T11:56:01.172Z,19.60
2023-05-18T11:58:18.432Z,19.64
2023-05-18T12:00:35.474Z,19.77
2023-05-18T12:02:53.210Z,19.75
2023-05-18T12:05:10.424Z,19.70
2023-05-18T12:07:28.714Z,19.69
2023-05-18T12:09:45.964Z,19.77
2023-05-18T12:12:04.412Z,19.98
2023-05-18T12:14:24.756Z,19.93
2023-05-18T12:16:42.103Z,19.95
2023-05-18T12:18:59.465Z,20.00
2023-05-18T12:21:16.816Z,20.02
2023-05-18T12:23:33.962Z,20.21
2023-05-18T12:25:51.345Z,20.23
2023-05-18T12:28:08.320Z,20.38
2023-05-18T12:30:25.686Z,20.59
2023-05-18T12:32:43.115Z,20.63
2023-05-18T12:35:00.616Z,20.66
2023-05-18T12:37:17.597Z,20.55
2023-05-18T12:39:34.911Z,20.65
2023-05-18T12:41:51.934Z,20.55
2023-05-18T12:44:09.306Z,20.68
2023-05-18T12:46:26.827Z,20.60
2023-05-18T12:48:44.140Z,20.74
2023-05-18T12:51:01.264Z,20.89
2023-05-18T12:53:18.599Z,20.97
2023-05-18T12:55:36.517Z,21.02
2023-05-18T12:57:53.457Z,20.96
2023-05-18T13:00:10.574Z,20.87
2023-05-18T13:02:27.786Z,20.79
2023-05-18T13:04:45.252Z,20.71
2023-05-18T13:07:02.225Z,20.90
2023-05-18T13:09:19.161Z,20.90
2023-05-18T13:11:36.500Z,20.94
2023-05-18T13:13:53.997Z,21.05
2023-05-18T13:16:11.624Z,20.75
2023-05-18T13:18:28.657Z,20.92
2023-05-18T13:20:45.651Z,21.24
2023-05-18T13:23:02.766Z,20.99
2023-05-18T13:25:20.160Z,20.91
2023-05-18T13:27:38.298Z,21.09
2023-05-18T13:29:55.256Z,21.28
2023-05-18T13:32:13.670Z,21.37
2023-05-18T13:34:31.076Z,21.26
2023-05-18T13:36:48.074Z,21.02
2023-05-18T13:39:05.875Z,21.11
2023-05-18T13:41:22.848Z,21.26
2023-05-18T13:43:39.850Z,21.48
2023-05-18T13:45:56.843Z,21.17
2023-05-18T13:48:14.193Z,21.36
2023-05-18T13:50:33.785Z,21.33
2023-05-18T13:52:51.171Z,21.33
2023-05-18T13:55:09.023Z,21.45
2023-05-18T13:57:27.265Z,21.53
2023-05-18T13:59:44.531Z,21.38
2023-05-18T14:02:02.020Z,21.41
2023-05-18T14:04:19.007Z,21.36
2023-05-18T14:06:36.226Z,21.23
2023-05-18T14:08:53.532Z,21.27
2023-05-18T14:11:10.435Z,21.19
2023-05-18T14:13:27.568Z,21.36
2023-05-18T14:15:44.576Z,21.01
2023-05-18T14:18:02.042Z,20.77
2023-05-18T14:20:19.420Z,21.08
2023-05-18T14:22:36.729Z,21.23
2023-05-18T14:24:54.020Z,21.18
2023-05-18T14:27:11.321Z,21.04
2023-05-18T14:29:29.575Z,21.05
2023-05-18T14:31:46.575Z,21.10
2023-05-18T14:34:03.557Z,21.33
2023-05-18T14:36:22.194Z,21.51
2023-05-18T14:38:39.743Z,21.57
2023-05-18T14:40:57.111Z,21.62
2023-05-18T14:43:14.850Z,21.48
2023-05-18T14:45:32.168Z,21.44
2023-05-18T14:47:49.133Z,21.50
2023-05-18T14:50:06.827Z,21.63
2023-05-18T14:52:24.163Z,21.55
2023-05-18T14:54:41.445Z,21.59
2023-05-18T14:56:58.523Z,21.38
2023-05-18T14:59:15.951Z,21.11
2023-05-18T15:01:33.332Z,20.90
2023-05-18T15:03:50.648Z,20.78
2023-05-18T15:06:09.153Z,20.95
2023-05-18T15:08:26.496Z,20.79
2023-05-18T15:10:43.799Z,20.84
2023-05-18T15:13:01.224Z,21.02
2023-05-18T15:15:18.918Z,20.69
2023-05-18T15:17:36.041Z,20.76
2023-05-18T15:19:55.404Z,20.83
2023-05-18T15:22:13.770Z,20.77
2023-05-18T15:24:31.038Z,20.97
2023-05-18T15:26:48.145Z,21.09
2023-05-18T15:29:07.757Z,21.20
2023-05-18T15:31:25.098Z,21.24
2023-05-18T15:33:42.143Z,20.78
2023-05-18T15:35:59.272Z,20.43
2023-05-18T15:38:16.579Z,20.20
2023-05-18T15:40:34.060Z,20.05
2023-05-18T15:42:51.155Z,20.08
2023-05-18T15:45:08.465Z,20.24
2023-05-18T15:47:25.587Z,20.40
2023-05-18T15:49:42.798Z,20.46
2023-05-18T15:52:00.137Z,20.60
2023-05-18T15:54:17.497Z,20.75
2023-05-18T15:56:34.511Z,20.77
2023-05-18T15:58:51.610Z,20.82
2023-05-18T16:01:08.949Z,20.70
2023-05-18T16:03:26.461Z,20.63
2023-05-18T16:05:43.735Z,20.63
2023-05-18T16:08:02.271Z,20.61
2023-05-18T16:10:21.281Z,20.47
2023-05-18T16:12:39.091Z,20.38
2023-05-18T16:14:56.002Z,20.38
2023-05-18T16:17:13.431Z,20.22
2023-05-18T16:19:32.947Z,20.21
2023-05-18T16:21:50.388Z,20.05
2023-05-18T16:24:07.675Z,20.04
2023-05-18T16:26:25.076Z,19.95
2023-05-18T16:28:42.456Z,19.99
2023-05-18T16:30:59.859Z,19.93
2023-05-18T16:33:17.268Z,19.82
2023-05-18T16:35:34.213Z,19.89
2023-05-18T16:37:51.784Z,19.86
2023-05-18T16:40:08.745Z,19.97
2023-05-18T16:42:25.729Z,19.93
2023-05-18T16:44:43.072Z,19.72
2023-05-18T16:47:00.080Z,19.49
2023-05-18T16:49:17.437Z,19.41
2023-05-18T16:51:34.774Z,19.31
2023-05-18T16:53:52.111Z,19.22
2023-05-18T16:56:09.331Z,18.97
2023-05-18T16:58:26.700Z,18.73
2023-05-18T17:00:44.060Z,18.54
2023-05-18T17:03:01.360Z,18.44
2023-05-18T17:05:18.735Z,18.40
2023-05-18T17:07:36.121Z,18.47
2023-05-18T17:09:53.267Z,18.50
2023-05-18T17:12:10.650Z,18.46
2023-05-18T17:14:27.960Z,18.35
2023-05-18T17:16:45.350Z,18.21
2023-05-18T17:19:02.766Z,18.05
2023-05-18T17:21:19.760Z,17.96
2023-05-18T17:23:36.920Z,17.82
2023-05-18T17:26:00.868Z,17.73
2023-05-18T17:28:23.026Z,17.66
2023-05-18T17:30:40.396Z,17.57
2023-05-18T17:32:58.569Z,17.49
2023-05-18T17:35:18.085Z,17.44
2023-05-18T17:37:35.540Z,17.38
2023-05-18T17:39:52.894Z,17.35
2023-05-18T17:42:09.866Z,17.31
2023-05-18T17:44:27.267Z,17.27
2023-05-18T17:46:44.776Z,17.32
2023-05-18T17:49:02.148Z,17.36
2023-05-18T17:51:19.135Z,17.38
2023-05-18T17:53:36.426Z,17.49
2023-05-18T17:55:53.723Z,17.52
2023-05-18T17:58:11.732Z,17.50
2023-05-18T18:00:29.064Z,17.42
2023-05-18T18:02:47.236Z,17.37
2023-05-18T18:05:04.655Z,17.23
2023-05-18T18:07:21.603Z,17.09
2023-05-18T18:09:39.280Z,16.94
2023-05-18T18:11:56.488Z,16.82
2023-05-18T18:14:13.576Z,16.71
2023-05-18T18:16:31.660Z,16.58
2023-05-18T18:18:48.737Z,16.49
2023-05-18T18:21:05.766Z,16.37
2023-05-18T18:23:22.759Z,16.29
2023-05-18T18:25:40.092Z,16.19
2023-05-18T18:27:58.187Z,16.11
2023-05-18T18:30:16.538Z,16.04
2023-05-18T18:32:35.971Z,15.92
2023-05-18T18:34:55.391Z,15.82
2023-05-18T18:37:13.588Z,15.72
2023-05-18T18:39:32.811Z,15.65
2023-05-18T18:41:50.168Z,15.57
2023-05-18T18:44:07.655Z,15.46
2023-05-18T18:46:25.263Z,15.41
2023-05-18T18:48:42.690Z,15.31
2023-05-18T18:51:01.078Z,15.20
2023-05-18T18:53:20.331Z,15.08
2023-05-18T18:55:37.331Z,14.95
2023-05-18T18:57:54.647Z,14.84
2023-05-18T19:00:11.949Z,14.73
2023-05-18T19:02:28.988Z,14.57
2023-05-18T19:04:46.052Z,14.43
2023-05-18T19:07:03.344Z,14.33
2023-05-18T19:09:20.948Z,14.25
2023-05-18T19:11:37.920Z,14.11
2023-05-18T19:13:54.908Z,13.97
2023-05-18T19:16:11.930Z,13.86
2023-05-18T19:18:29.252Z,13.73
2023-05-18T19:20:46.766Z,13.64
2023-05-18T19:23:04.937Z,13.53
2023-05-18T19:25:22.326Z,13.41
2023-05-18T19:27:39.614Z,13.31
2023-05-18T19:29:57.420Z,13.24
2023-05-18T19:32:14.342Z,13.14
2023-05-18T19:34:31.370Z,13.06
2023-05-18T19:36:48.740Z,12.97
2023-05-18T19:39:06.019Z,12.85
2023-05-18T19:41:24.864Z,12.77
2023-05-18T19:43:42.077Z,12.68
2023-05-18T19:45:59.106Z,12.59
2023-05-18T19:48:16.519Z,12.51
2023-05-18T19:50:33.441Z,12.41
2023-05-18T19:52:51.719Z,12.35
2023-05-18T19:55:09.064Z,12.27
2023-05-18T19:57:26.649Z,12.17
2023-05-18T19:59:43.947Z,12.07
2023-05-18T20:02:01.288Z,11.99
2023-05-18T20:04:18.723Z,11.92
2023-05-18T20:06:36.809Z,11.84
2023-05-18T20:08:53.751Z,11.72
2023-05-18T20:11:13.860Z,11.63
2023-05-18T20:13:31.118Z,11.60
2023-05-18T20:15:48.572Z,11.54
2023-05-18T20:18:07.011Z,11.45
2023-05-18T20:20:24.531Z,11.40
2023-05-18T20:22:42.837Z,11.32
2023-05-18T20:24:59.928Z,11.24
2023-05-18T20:27:17.869Z,11.20
2023-05-18T20:29:36.003Z,11.11
2023-05-18T20:31:54.080Z,11.08
2023-05-18T20:34:11.515Z,11.01
2023-05-18T20:36:28.869Z,10.95
2023-05-18T20:38:45.887Z,10.87
2023-05-18T20:41:04.490Z,10.81
2023-05-18T20:43:21.754Z,10.74
2023-05-18T20:45:39.078Z,10.71
2023-05-18T20:47:56.424Z,10.65
2023-05-18T20:50:13.789Z,10.58
2023-05-18T20:52:31.029Z,10.51
2023-05-18T20:54:48.384Z,10.44
2023-05-18T20:57:05.549Z,10.37
2023-05-18T20:59:22.977Z,10.28
2023-05-18T21:01:40.143Z,10.26
2023-05-18T21:03:57.670Z,10.24
2023-05-18T21:06:15.752Z,10.18
2023-05-18T21:08:32.870Z,10.11
2023-05-18T21:10:49.852Z,10.04
2023-05-18T21:13:06.977Z,10.03
2023-05-18T21:15:24.267Z,9.97
2023-05-18T21:17:41.228Z,9.90
2023-05-18T21:19:58.422Z,9.82
2023-05-18T21:22:15.529Z,9.80
2023-05-18T21:24:32.637Z,9.75
2023-05-18T21:26:49.882Z,9.73
2023-05-18T21:29:07.155Z,9.68
2023-05-18T21:31:25.194Z,9.67
2023-05-18T21:33:42.616Z,9.62
2023-05-18T21:36:00.039Z,9.58
2023-05-18T21:38:17.355Z,9.54
2023-05-18T21:40:34.812Z,9.50
2023-05-18T21:42:52.588Z,9.42
2023-05-18T21:45:09.836Z,9.37
2023-05-18T21:47:26.854Z,9.32
2023-05-18T21:49:44.199Z,9.29
2023-05-18T21:52:01.537Z,9.24
2023-05-18T21:54:19.636Z,9.24
2023-05-18T21:56:36.614Z,9.23
2023-05-18T21:58:53.605Z,9.21
2023-05-18T22:01:10.674Z,9.13
2023-05-18T22:03:27.631Z,9.08
2023-05-18T22:05:44.548Z,9.06
2023-05-18T22:08:02.500Z,9.03
2023-05-18T22:10:19.425Z,9.01
2023-05-18T22:12:36.431Z,9.00
2023-05-18T22:14:53.960Z,8.99
2023-05-18T22:17:10.967Z,8.98
2023-05-18T22:19:28.454Z,9.00
2023-05-18T22:21:45.753Z,8.98
2023-05-18T22:24:03.024Z,8.95
2023-05-18T22:26:19.975Z,8.95
2023-05-18T22:28:37.317Z,8.89
2023-05-18T22:30:54.306Z,8.86
2023-05-18T22:33:11.323Z,8.83
2023-05-18T22:35:29.671Z,8.82
2023-05-18T22:37:47.018Z,8.79
2023-05-18T22:40:04.275Z,8.77
2023-05-18T22:42:21.442Z,8.75
2023-05-18T22:44:38.719Z,8.72
2023-05-18T22:46:55.946Z,8.70
2023-05-18T22:49:13.064Z,8.69
2023-05-18T22:51:30.315Z,8.66
2023-05-18T22:53:47.589Z,8.60
2023-05-18T22:56:04.899Z,8.55
2023-05-18T22:58:22.199Z,8.52
2023-05-18T23:00:40.528Z,8.47
2023-05-18T23:02:57.507Z,8.46
2023-05-18T23:05:14.579Z,8.41
2023-05-18T23:07:32.153Z,8.36
2023-05-18T23:09:50.542Z,8.30
2023-05-18T23:12:07.525Z,8.28
2023-05-18T23:14:25.090Z,8.25
2023-05-18T23:16:42.727Z,8.19
2023-05-18T23:19:00.137Z,8.12
2023-05-18T23:21:17.136Z,8.05
2023-05-18T23:23:34.228Z,8.03
2023-05-18T23:25:51.670Z,7.99
2023-05-18T23:28:08.974Z,7.94
2023-05-18T23:30:26.304Z,7.90
2023-05-18T23:32:43.467Z,7.91
2023-05-18T23:35:00.850Z,7.89
2023-05-18T23:37:18.134Z,7.86
2023-05-18T23:39:35.226Z,7.82
2023-05-18T23:41:52.225Z,7.75
2023-05-18T23:44:09.268Z,7.67
2023-05-18T23:46:26.720Z,7.63
2023-05-18T23:48:43.825Z,7.60
2023-05-18T23:51:02.229Z,7.57
2023-05-18T23:53:19.602Z,7.54
2023-05-18T23:55:36.859Z,7.50
2023-05-18T23:57:53.821Z,7.45
